Time;durP1;ratioP1;P1;durP2;ratioP2;P2;SDS_P1;SDS_P2;PMS_P1;PMS_P2;Temp;Humidity;BMP_temperature;BMP_pressure;BME280_temperature;BME280_humidity;BME280_pressure;Samples;Min_cycle;Max_cycle;Signal;HPM_P1;HPM_P2
2022/07/02 00:00:46;;;;;;;;;;;;;;;15.55;49.99;100091.44;5032064;28;19920;-49
2022/07/02 00:03:12;;;;;;;;;;;;;;;15.53;50.31;100094.16;5033863;28;19916;-47
2022/07/02 00:05:40;;;;;;;;;;;;;;;15.50;50.08;100106.50;5015503;28;20289;-45
2022/07/02 00:08:05;;;;;;;;;;;;;;;15.45;50.67;100104.13;5024383;28;19916;-47
2022/07/02 00:10:31;;;;;;;;;;;;;;;15.45;50.90;100106.72;5048964;28;19968;-45
2022/07/02 00:12:56;;;;;;;;;;;;;;;15.43;50.96;100103.34;5045758;28;19917;-45
2022/07/02 00:15:22;;;;;;;;;;;;;;;15.40;51.22;100106.09;5015846;28;19983;-48
2022/07/02 00:17:47;;;;;;;;;;;;;;;15.37;51.29;100103.66;5020997;28;19917;-46
2022/07/02 00:20:13;;;;;;;;;;;;;;;15.35;51.34;100100.22;5046513;28;19924;-46
2022/07/02 00:22:39;;;;;;;;;;;;;;;15.32;51.57;100100.41;5047196;28;20347;-45
2022/07/02 00:25:04;;;;;;;;;;;;;;;15.30;51.38;100101.38;5030123;28;20389;-46
2022/07/02 00:27:30;;;;;;;;;;;;;;;15.28;51.83;100098.84;5031865;28;20588;-49
2022/07/02 00:30:00;;;;;;;;;;;;;;;15.25;51.68;100101.59;5030329;28;19917;-44
2022/07/02 00:32:26;;;;;;;;;;;;;;;15.23;51.74;100106.03;5033058;28;19917;-46
2022/07/02 00:34:52;;;;;;;;;;;;;;;15.20;51.97;100107.03;5027810;28;20415;-45
2022/07/02 00:37:17;;;;;;;;;;;;;;;15.18;52.20;100114.13;5029275;28;19916;-45
2022/07/02 00:39:43;;;;;;;;;;;;;;;15.16;52.05;100112.50;5032358;28;19921;-46
2022/07/02 00:42:09;;;;;;;;;;;;;;;15.14;52.14;100117.81;5012889;28;19924;-46
2022/07/02 00:44:34;;;;;;;;;;;;;;;15.13;52.24;100118.72;5012474;28;19975;-44
2022/07/02 00:47:07;;;;;;;;;;;;;;;15.12;52.33;100116.19;5026978;28;19921;-47
2022/07/02 00:49:33;;;;;;;;;;;;;;;15.10;52.74;100116.25;5024736;28;19917;-46
2022/07/02 00:51:59;;;;;;;;;;;;;;;15.11;52.69;100115.34;5014084;28;19959;-48
2022/07/02 00:54:25;;;;;;;;;;;;;;;15.10;52.53;100118.03;5013098;28;19924;-45
2022/07/02 00:56:51;;;;;;;;;;;;;;;15.08;52.81;100127.69;5022205;28;19921;-46
2022/07/02 00:59:17;;;;;;;;;;;;;;;15.07;52.88;100123.41;5051077;28;20062;-46
2022/07/02 01:01:42;;;;;;;;;;;;;;;15.06;52.98;100138.28;5032204;28;20380;-47
2022/07/02 01:04:08;;;;;;;;;;;;;;;15.04;53.05;100134.00;5025388;28;19939;-45
2022/07/02 01:06:33;;;;;;;;;;;;;;;15.01;53.16;100127.16;5022430;28;19947;-43
2022/07/02 01:11:44;;;;;;;;;;;;;;;14.99;53.47;100128.13;5012737;28;19924;-45
2022/07/02 01:14:10;;;;;;;;;;;;;;;14.98;53.53;100136.91;5014178;28;19917;-45
2022/07/02 01:16:36;;;;;;;;;;;;;;;14.96;53.52;100138.75;5043160;28;19917;-47
2022/07/02 01:19:01;;;;;;;;;;;;;;;14.94;53.91;100146.66;5011105;28;19917;-46
2022/07/02 01:21:27;;;;;;;;;;;;;;;14.93;53.90;100141.50;5044367;28;19963;-47
2022/07/02 01:23:53;;;;;;;;;;;;;;;14.93;53.90;100144.97;5013395;28;19917;-45
2022/07/02 01:26:19;;;;;;;;;;;;;;;14.94;53.96;100145.81;5019258;28;19921;-44
2022/07/02 01:28:46;;;;;;;;;;;;;;;14.95;54.20;100142.28;5032169;28;20446;-46
2022/07/02 01:31:12;;;;;;;;;;;;;;;14.95;54.21;100143.13;5027149;28;19917;-46
2022/07/02 01:33:37;;;;;;;;;;;;;;;14.94;54.22;100146.66;5014285;28;19916;-47
2022/07/02 01:36:03;;;;;;;;;;;;;;;14.94;54.48;100146.66;5030697;28;19974;-46
2022/07/02 01:38:28;;;;;;;;;;;;;;;14.94;54.87;100140.56;5031863;28;20008;-47
2022/07/02 01:41:38;;;;;;;;;;;;;;;14.92;55.29;100143.25;5030837;28;19916;-45
2022/07/02 01:43:40;;;;;;;;;;;;;;;14.95;55.90;100147.53;5015627;28;19918;-45
2022/07/02 01:46:06;;;;;;;;;;;;;;;14.97;56.01;100162.22;5016985;28;19920;-46
2022/07/02 01:48:32;;;;;;;;;;;;;;;14.98;56.20;100145.59;5029780;28;19917;-46
2022/07/02 01:50:58;;;;;;;;;;;;;;;14.98;56.32;100161.31;5030618;28;19920;-44
2022/07/02 01:53:23;;;;;;;;;;;;;;;14.99;56.61;100154.31;5020585;28;20494;-43
2022/07/02 01:55:49;;;;;;;;;;;;;;;14.99;56.71;100155.16;5012986;28;20015;-46
2022/07/02 01:58:15;;;;;;;;;;;;;;;15.01;57.01;100153.34;5029777;28;19923;-45
2022/07/02 02:00:40;;;;;;;;;;;;;;;15.04;56.90;100147.09;5020508;28;19917;-48
2022/07/02 02:03:06;;;;;;;;;;;;;;;15.05;56.90;100151.44;5027810;28;19916;-49
2022/07/02 02:05:31;;;;;;;;;;;;;;;15.05;56.86;100154.91;5031427;28;19924;-46
2022/07/02 02:07:58;;;;;;;;;;;;;;;15.05;56.74;100157.50;5023689;28;19917;-44
2022/07/02 02:10:23;;;;;;;;;;;;;;;15.07;56.78;100162.69;5010054;28;19925;-45
2022/07/02 02:12:49;;;;;;;;;;;;;;;15.08;56.96;100157.38;5045304;28;20420;-48
2022/07/02 02:15:15;;;;;;;;;;;;;;;15.13;56.99;100171.09;5027238;28;20011;-45
2022/07/02 02:17:41;;;;;;;;;;;;;;;15.14;56.61;100170.19;5023833;28;19924;-44
2022/07/02 02:20:07;;;;;;;;;;;;;;;15.16;56.85;100170.97;5031139;28;19927;-46
2022/07/02 02:22:33;;;;;;;;;;;;;;;15.19;56.65;100183.94;5029464;28;19917;-46
2022/07/02 02:24:59;;;;;;;;;;;;;;;15.22;56.67;100175.09;5029771;28;19924;-45
2022/07/02 02:27:24;;;;;;;;;;;;;;;15.23;57.10;100172.38;5014822;28;19921;-45
2022/07/02 02:29:51;;;;;;;;;;;;;;;15.24;57.47;100168.84;5011388;28;19917;-45
2022/07/02 02:32:17;;;;;;;;;;;;;;;15.26;57.48;100169.63;5052209;28;19920;-44
2022/07/02 02:34:42;;;;;;;;;;;;;;;15.30;57.61;100175.56;5030822;28;19917;-46
2022/07/02 02:37:08;;;;;;;;;;;;;;;15.34;57.72;100182.38;5031102;28;19924;-45
2022/07/02 02:39:34;;;;;;;;;;;;;;;15.36;57.79;100177.91;5029119;28;19921;-44
2022/07/02 02:41:59;;;;;;;;;;;;;;;15.40;57.64;100179.47;5047831;28;19924;-46
2022/07/02 02:44:25;;;;;;;;;;;;;;;15.42;57.59;100180.25;5028731;28;20364;-44
2022/07/02 02:46:51;;;;;;;;;;;;;;;15.45;57.52;100180.09;5029260;28;20282;-51
2022/07/02 02:49:16;;;;;;;;;;;;;;;15.50;57.27;100177.28;5030802;28;19924;-45
2022/07/02 02:51:42;;;;;;;;;;;;;;;15.53;57.08;100171.94;5030524;28;19917;-46
2022/07/02 02:54:08;;;;;;;;;;;;;;;15.57;56.80;100170.88;5024608;28;20305;-46
2022/07/02 02:56:33;;;;;;;;;;;;;;;15.62;56.40;100166.25;5009743;28;20291;-46
2022/07/02 02:58:59;;;;;;;;;;;;;;;15.66;56.00;100158.16;5019840;28;19916;-46
2022/07/02 03:01:25;;;;;;;;;;;;;;;15.70;55.75;100158.91;5027593;28;19917;-44
2022/07/02 03:03:52;;;;;;;;;;;;;;;15.76;55.49;100161.19;5030675;28;19970;-45
2022/07/02 03:06:20;;;;;;;;;;;;;;;15.82;54.99;100162.69;5030417;28;19986;-43
2022/07/02 03:08:45;;;;;;;;;;;;;;;15.84;54.85;100161.69;5015811;28;19921;-43
2022/07/02 03:11:11;;;;;;;;;;;;;;;15.89;54.78;100159.69;5009586;28;20043;-45
2022/07/02 03:13:37;;;;;;;;;;;;;;;15.91;54.57;100162.25;5024854;28;19932;-45
2022/07/02 03:16:03;;;;;;;;;;;;;;;15.94;54.29;100165.56;5030446;28;20019;-45
2022/07/02 03:18:28;;;;;;;;;;;;;;;15.96;53.84;100166.31;5030299;28;20507;-45
2022/07/02 03:20:54;;;;;;;;;;;;;;;15.99;53.94;100170.59;5028479;28;19921;-47
2022/07/02 03:23:20;;;;;;;;;;;;;;;16.02;53.67;100171.28;5027066;28;19978;-49
2022/07/02 03:25:47;;;;;;;;;;;;;;;16.05;53.66;100171.16;5045586;28;19921;-47
2022/07/02 03:28:12;;;;;;;;;;;;;;;16.10;53.50;100176.16;5030461;28;19917;-46
2022/07/02 03:30:38;;;;;;;;;;;;;;;16.13;53.22;100170.75;5012717;28;19917;-47
2022/07/02 03:33:04;;;;;;;;;;;;;;;16.17;53.50;100174.09;5023516;28;20716;-49
2022/07/02 03:35:30;;;;;;;;;;;;;;;16.21;53.33;100178.25;5027032;28;20281;-46
2022/07/02 03:37:56;;;;;;;;;;;;;;;16.27;52.98;100180.59;5011322;28;20403;-48
2022/07/02 03:40:21;;;;;;;;;;;;;;;16.32;53.19;100179.44;5023009;28;19916;-44
2022/07/02 03:42:47;;;;;;;;;;;;;;;16.36;52.91;100180.97;5029901;28;19917;-47
2022/07/02 03:45:13;;;;;;;;;;;;;;;16.42;52.77;100182.44;5018314;28;19917;-47
2022/07/02 03:47:39;;;;;;;;;;;;;;;16.46;52.47;100182.19;5022084;28;20386;-46
2022/07/02 03:50:05;;;;;;;;;;;;;;;16.51;52.20;100189.84;5028303;28;20444;-47
2022/07/02 03:52:30;;;;;;;;;;;;;;;16.56;51.96;100184.34;5028842;28;19967;-45
2022/07/02 03:54:56;;;;;;;;;;;;;;;16.62;51.64;100187.56;5028088;28;20396;-45
2022/07/02 03:57:22;;;;;;;;;;;;;;;16.67;51.00;100180.28;5032146;28;19952;-47
2022/07/02 03:59:48;;;;;;;;;;;;;;;16.75;50.79;100190.38;5033242;28;19990;-46
2022/07/02 04:02:13;;;;;;;;;;;;;;;16.82;50.55;100189.16;5032435;28;19917;-45
2022/07/02 04:04:39;;;;;;;;;;;;;;;16.86;49.99;100183.66;5031038;28;19916;-48
2022/07/02 04:07:04;;;;;;;;;;;;;;;16.94;49.92;100193.78;5032346;28;19928;-45
2022/07/02 04:09:30;;;;;;;;;;;;;;;16.99;49.52;100197.00;5028908;28;19975;-46
2022/07/02 04:11:55;;;;;;;;;;;;;;;17.04;49.24;100197.59;5028680;28;20032;-46
2022/07/02 04:14:21;;;;;;;;;;;;;;;17.12;49.12;100205.06;5013631;28;19917;-46
2022/07/02 04:16:46;;;;;;;;;;;;;;;17.17;48.76;100198.66;4996265;28;20020;-45
2022/07/02 04:19:12;;;;;;;;;;;;;;;17.23;48.91;100192.22;5018102;28;19920;-49
2022/07/02 04:21:37;;;;;;;;;;;;;;;17.29;48.64;100192.75;5045593;28;20412;-48
2022/07/02 04:24:03;;;;;;;;;;;;;;;17.36;48.40;100201.16;5045467;28;20389;-45
2022/07/02 04:26:28;;;;;;;;;;;;;;;17.44;48.39;100203.34;5013541;28;20016;-46
2022/07/02 04:28:54;;;;;;;;;;;;;;;17.51;48.18;100194.22;5019512;28;19924;-46
2022/07/02 04:31:21;;;;;;;;;;;;;;;17.59;47.43;100197.25;5031436;28;19917;-47
2022/07/02 04:33:46;;;;;;;;;;;;;;;17.65;47.11;100195.19;5033099;28;19917;-46
2022/07/02 04:36:12;;;;;;;;;;;;;;;17.71;46.59;100186.97;5032978;28;20407;-48
2022/07/02 04:38:39;;;;;;;;;;;;;;;17.77;46.00;100180.50;5021584;28;20007;-47
2022/07/02 04:41:04;;;;;;;;;;;;;;;17.83;46.06;100182.81;5013392;28;19922;-45
2022/07/02 04:43:32;;;;;;;;;;;;;;;17.89;45.63;100173.72;5029293;28;19928;-43
2022/07/02 04:45:59;;;;;;;;;;;;;;;17.95;45.20;100176.81;5032901;28;20393;-46
2022/07/02 04:48:25;;;;;;;;;;;;;;;18.00;44.79;100169.53;5064550;28;19983;-48
2022/07/02 04:50:50;;;;;;;;;;;;;;;18.08;44.69;100176.97;5031591;28;19952;-46
2022/07/02 04:53:16;;;;;;;;;;;;;;;18.14;44.57;100171.38;5032319;28;20319;-47
2022/07/02 04:55:42;;;;;;;;;;;;;;;18.22;44.44;100166.50;5013107;28;20322;-46
2022/07/02 04:58:07;;;;;;;;;;;;;;;18.29;44.11;100164.38;5024051;28;19917;-46
2022/07/02 05:00:33;;;;;;;;;;;;;;;18.33;43.99;100158.81;5032444;28;19917;-46
2022/07/02 05:02:58;;;;;;;;;;;;;;;18.40;43.86;100164.59;5030617;28;19923;-46
2022/07/02 05:05:24;;;;;;;;;;;;;;;18.47;43.87;100165.94;5031183;28;19932;-47
2022/07/02 05:07:50;;;;;;;;;;;;;;;18.54;43.75;100164.66;5032020;28;19917;-46
2022/07/02 05:10:16;;;;;;;;;;;;;;;18.59;43.44;100163.44;5031193;28;19928;-45
2022/07/02 05:12:41;;;;;;;;;;;;;;;18.67;43.64;100163.00;5023577;28;20393;-47
2022/07/02 05:15:07;;;;;;;;;;;;;;;18.75;43.50;100159.88;5012458;28;20424;-46
2022/07/02 05:17:33;;;;;;;;;;;;;;;18.80;43.30;100163.94;5017816;28;19970;-49
2022/07/02 05:19:58;;;;;;;;;;;;;;;18.87;43.37;100167.91;5031167;28;19913;-47
2022/07/02 05:22:24;;;;;;;;;;;;;;;18.94;43.09;100166.59;5031173;28;19932;-44
2022/07/02 05:24:49;;;;;;;;;;;;;;;19.02;42.92;100166.97;5029432;28;20027;-47
2022/07/02 05:27:15;;;;;;;;;;;;;;;19.12;42.91;100169.88;5029650;28;20298;-46
2022/07/02 05:29:40;;;;;;;;;;;;;;;19.22;43.08;100162.25;5029692;28;20068;-45
2022/07/02 05:32:06;;;;;;;;;;;;;;;19.31;42.78;100157.22;5064267;28;19951;-47
2022/07/02 05:34:31;;;;;;;;;;;;;;;19.40;42.26;100155.81;5028702;28;19917;-46
2022/07/02 05:36:57;;;;;;;;;;;;;;;19.49;42.19;100154.41;5011071;28;19971;-47
2022/07/02 05:39:23;;;;;;;;;;;;;;;19.57;42.13;100160.91;5026988;28;20408;-46
2022/07/02 05:41:48;;;;;;;;;;;;;;;19.66;41.69;100151.56;5031881;28;20011;-46
2022/07/02 05:44:14;;;;;;;;;;;;;;;19.75;41.50;100151.81;5015628;28;19922;-47
2022/07/02 05:46:39;;;;;;;;;;;;;;;19.86;41.45;100153.75;4998107;28;19921;-44
2022/07/02 05:49:05;;;;;;;;;;;;;;;19.97;41.27;100156.53;5025180;28;19917;-46
2022/07/02 05:51:30;;;;;;;;;;;;;;;20.09;40.82;100165.47;5020558;28;19921;-44
2022/07/02 05:53:56;;;;;;;;;;;;;;;20.19;40.64;100158.63;5011924;28;19921;-46
2022/07/02 05:56:21;;;;;;;;;;;;;;;20.29;40.25;100151.78;5011882;28;20015;-47
2022/07/02 05:58:47;;;;;;;;;;;;;;;20.41;39.70;100156.25;5022169;28;20024;-45
2022/07/02 06:01:13;;;;;;;;;;;;;;;20.52;39.15;100164.28;5021996;28;19917;-44
2022/07/02 06:03:39;;;;;;;;;;;;;;;20.63;38.84;100153.00;5019545;28;19970;-45
2022/07/02 06:08:48;;;;;;;;;;;;;;;20.80;38.30;100157.97;5029981;28;20008;-45
2022/07/02 06:11:14;;;;;;;;;;;;;;;20.90;37.62;100152.91;5029150;28;20011;-45
2022/07/02 06:13:40;;;;;;;;;;;;;;;21.00;37.24;100148.66;5022095;28;19924;-47
2022/07/02 06:16:05;;;;;;;;;;;;;;;21.10;36.71;100153.19;5025928;28;19923;-46
2022/07/02 06:18:31;;;;;;;;;;;;;;;21.20;36.57;100147.31;5062898;28;19975;-46
2022/07/02 06:20:56;;;;;;;;;;;;;;;21.32;36.04;100154.38;5029267;28;19916;-46
2022/07/02 06:23:22;;;;;;;;;;;;;;;21.42;35.89;100150.94;5031189;28;20026;-45
2022/07/02 06:25:48;;;;;;;;;;;;;;;21.56;35.64;100144.69;5030217;28;19963;-44
2022/07/02 06:28:14;;;;;;;;;;;;;;;21.69;35.51;100145.47;5030444;28;19966;-46
2022/07/02 06:30:39;;;;;;;;;;;;;;;21.82;35.46;100137.50;5029259;28;20389;-45
2022/07/02 06:33:05;;;;;;;;;;;;;;;21.96;35.16;100134.69;5029790;28;19940;-47
2022/07/02 06:35:30;;;;;;;;;;;;;;;22.12;35.10;100131.75;5027566;28;19922;-48
2022/07/02 06:37:56;;;;;;;;;;;;;;;22.27;34.72;100126.13;5030784;28;19917;-47
2022/07/02 06:40:21;;;;;;;;;;;;;;;22.43;34.35;100128.47;5018254;28;19917;-45
2022/07/02 06:42:47;;;;;;;;;;;;;;;22.73;33.81;100131.44;5041965;28;20311;-46
2022/07/02 06:45:13;;;;;;;;;;;;;;;23.28;32.81;100132.41;5033380;28;19909;-47
2022/07/02 06:47:39;;;;;;;;;;;;;;;24.05;31.53;100127.88;5045842;28;20011;-47
2022/07/02 06:50:06;;;;;;;;;;;;;;;24.98;30.21;100126.16;5030403;28;19921;-49
2022/07/02 06:52:31;;;;;;;;;;;;;;;26.15;28.27;100129.78;5031189;28;19916;-47
2022/07/02 06:54:57;;;;;;;;;;;;;;;27.28;26.83;100129.78;5044833;28;20476;-46
2022/07/02 06:57:23;;;;;;;;;;;;;;;28.30;25.64;100135.75;5035196;28;19923;-45
2022/07/02 06:59:49;;;;;;;;;;;;;;;29.34;24.54;100137.41;5027707;28;19963;-46
2022/07/02 07:02:14;;;;;;;;;;;;;;;30.37;23.45;100141.47;5029033;28;19978;-45
2022/07/02 07:04:42;;;;;;;;;;;;;;;31.24;22.55;100143.34;5030195;28;19963;-45
2022/07/02 07:07:09;;;;;;;;;;;;;;;32.20;20.94;100136.56;5011401;28;20309;-45
2022/07/02 07:09:34;;;;;;;;;;;;;;;33.14;19.92;100135.97;5010839;28;19932;-44
2022/07/02 07:12:01;;;;;;;;;;;;;;;34.12;19.49;100127.41;5011983;28;19917;-47
2022/07/02 07:14:26;;;;;;;;;;;;;;;35.08;18.65;100123.13;5052401;28;19998;-45
2022/07/02 07:16:52;;;;;;;;;;;;;;;35.81;17.96;100122.41;5024849;28;20383;-46
2022/07/02 07:19:17;;;;;;;;;;;;;;;36.53;17.45;100128.97;5029758;28;19917;-46
2022/07/02 07:21:43;;;;;;;;;;;;;;;37.14;16.83;100124.91;5045606;28;19917;-48
2022/07/02 07:24:09;;;;;;;;;;;;;;;37.78;16.26;100123.16;5025101;28;20423;-45
2022/07/02 07:26:35;;;;;;;;;;;;;;;38.58;15.74;100124.25;5026707;28;19960;-43
2022/07/02 07:29:01;;;;;;;;;;;;;;;39.19;15.32;100122.34;5029847;28;19920;-45
2022/07/02 07:31:27;;;;;;;;;;;;;;;39.71;14.63;100120.81;5032684;28;20385;-44
2022/07/02 07:33:53;;;;;;;;;;;;;;;40.18;13.81;100127.25;5037978;28;20393;-47
2022/07/02 07:36:19;;;;;;;;;;;;;;;40.54;14.13;100122.66;5034025;28;19924;-46
2022/07/02 07:38:45;;;;;;;;;;;;;;;41.01;13.50;100123.47;5034005;28;19917;-44
2022/07/02 07:41:11;;;;;;;;;;;;;;;41.46;13.01;100126.34;5034156;28;19917;-48
2022/07/02 07:43:36;;;;;;;;;;;;;;;41.68;12.86;100121.88;5033703;28;20471;-46
2022/07/02 07:46:02;;;;;;;;;;;;;;;42.00;12.29;100118.63;5033990;28;19972;-47
2022/07/02 07:48:28;;;;;;;;;;;;;;;42.32;11.81;100122.47;5058442;28;20028;-47
2022/07/02 07:50:54;;;;;;;;;;;;;;;42.72;11.77;100116.81;5044500;28;20376;-46
2022/07/02 07:53:19;;;;;;;;;;;;;;;43.02;11.55;100117.22;5035444;28;19917;-45
2022/07/02 07:55:46;;;;;;;;;;;;;;;43.24;11.30;100106.28;5033813;28;19917;-46
2022/07/02 07:58:12;;;;;;;;;;;;;;;43.51;11.15;100114.53;5033763;28;19917;-45
2022/07/02 08:00:37;;;;;;;;;;;;;;;43.58;11.14;100111.63;5032224;28;20007;-45
2022/07/02 08:03:03;;;;;;;;;;;;;;;43.68;11.16;100109.81;5032550;28;19916;-45
2022/07/02 08:05:29;;;;;;;;;;;;;;;43.87;10.95;100113.84;5033278;28;20357;-46
2022/07/02 08:07:54;;;;;;;;;;;;;;;44.19;10.76;100121.22;5032172;28;19936;-44
2022/07/02 08:10:21;;;;;;;;;;;;;;;44.42;10.44;100112.66;5020106;28;19925;-46
2022/07/02 08:12:48;;;;;;;;;;;;;;;44.52;10.41;100106.41;5028313;28;19917;-44
2022/07/02 08:15:17;;;;;;;;;;;;;;;44.52;10.47;100114.66;5022607;28;19925;-48
2022/07/02 08:17:43;;;;;;;;;;;;;;;44.65;10.24;100090.31;5026173;28;19924;-44
2022/07/02 08:20:09;;;;;;;;;;;;;;;44.79;9.99;100103.56;5059745;28;19917;-46
2022/07/02 08:22:35;;;;;;;;;;;;;;;44.98;9.93;100097.34;5064819;28;19921;-45
2022/07/02 08:25:01;;;;;;;;;;;;;;;45.00;10.18;100097.91;5065379;28;19921;-46
2022/07/02 08:27:27;;;;;;;;;;;;;;;44.92;9.98;100105.81;5031639;28;19920;-50
2022/07/02 08:29:52;;;;;;;;;;;;;;;45.12;10.11;100098.53;5015500;28;20012;-43
2022/07/02 08:32:18;;;;;;;;;;;;;;;45.33;9.67;100088.41;5032986;28;20014;-46
2022/07/02 08:34:44;;;;;;;;;;;;;;;45.40;9.88;100091.75;5032695;28;19959;-47
2022/07/02 08:37:09;;;;;;;;;;;;;;;45.65;9.63;100093.72;5031878;28;19920;-43
2022/07/02 08:39:35;;;;;;;;;;;;;;;45.70;9.56;100090.16;5032416;28;19917;-41
2022/07/02 08:42:01;;;;;;;;;;;;;;;45.70;9.51;100095.66;5064138;28;19913;-44
2022/07/02 08:44:26;;;;;;;;;;;;;;;45.68;9.57;100084.13;5014621;28;19930;-47
2022/07/02 08:46:52;;;;;;;;;;;;;;;45.56;9.72;100076.13;5032007;28;19921;-46
2022/07/02 08:49:18;;;;;;;;;;;;;;;45.38;9.36;100071.16;5031219;28;20512;-42
2022/07/02 08:51:51;;;;;;;;;;;;;;;45.46;9.31;100082.44;5029147;28;19924;-41
2022/07/02 08:54:17;;;;;;;;;;;;;;;45.54;9.49;100072.81;5030429;28;19970;-45
2022/07/02 08:56:42;;;;;;;;;;;;;;;45.79;9.45;100067.41;5058858;28;19965;-43
2022/07/02 08:59:08;;;;;;;;;;;;;;;45.93;9.13;100063.00;5027674;28;19917;-48
2022/07/02 09:01:33;;;;;;;;;;;;;;;45.93;8.95;100059.41;5022713;28;19917;-44
2022/07/02 09:03:59;;;;;;;;;;;;;;;45.91;9.33;100056.09;5029705;28;19920;-44
2022/07/02 09:06:30;;;;;;;;;;;;;;;46.25;8.86;100061.88;5031150;28;19991;-44
2022/07/02 09:08:56;;;;;;;;;;;;;;;46.50;8.89;100044.47;5030961;28;19928;-42
2022/07/02 09:11:22;;;;;;;;;;;;;;;46.76;8.90;100054.31;5026702;28;20645;-66
2022/07/02 09:13:47;;;;;;;;;;;;;;;47.07;8.92;100044.00;5060462;28;19917;-65
2022/07/02 09:16:13;;;;;;;;;;;;;;;47.15;9.19;100051.69;5029274;28;19927;-65
2022/07/02 09:18:39;;;;;;;;;;;;;;;47.47;8.75;100049.28;5029016;28;19924;-64
2022/07/02 09:21:05;;;;;;;;;;;;;;;47.60;8.98;100056.06;5012850;28;19928;-63
2022/07/02 09:23:30;;;;;;;;;;;;;;;47.60;8.76;100053.31;5032346;28;19921;-62
2022/07/02 09:25:56;;;;;;;;;;;;;;;47.65;8.54;100055.25;5025180;28;19921;-64
2022/07/02 09:28:21;;;;;;;;;;;;;;;47.79;8.60;100034.97;5028657;28;19964;-63
2022/07/02 09:30:47;;;;;;;;;;;;;;;47.94;8.56;100032.09;5021856;28;19916;-64
2022/07/02 09:33:59;;;;;;;;;;;;;;;47.97;8.55;100026.00;5053889;28;19924;-65
2022/07/02 09:36:09;;;;;;;;;;;;;;;47.77;8.42;100022.63;5029422;28;20293;-63
2022/07/02 09:38:41;;;;;;;;;;;;;;;47.42;8.43;100010.75;5031173;28;20378;-63
2022/07/02 09:41:10;;;;;;;;;;;;;;;47.52;8.41;99999.66;5029248;28;19928;-64
2022/07/02 09:43:38;;;;;;;;;;;;;;;47.72;8.49;100001.44;5017651;28;19917;-43
2022/07/02 09:46:12;;;;;;;;;;;;;;;47.67;8.27;99997.91;5021880;28;19933;-60
2022/07/02 09:48:38;;;;;;;;;;;;;;;47.50;8.39;99990.84;5027605;28;19920;-62
2022/07/02 09:51:04;;;;;;;;;;;;;;;47.17;8.66;99994.34;5031720;28;20001;-59
2022/07/02 09:53:30;;;;;;;;;;;;;;;46.93;8.77;99993.41;5029773;28;19917;-61
2022/07/02 09:55:55;;;;;;;;;;;;;;;46.63;8.85;99983.38;5030547;28;19932;-59
2022/07/02 09:58:25;;;;;;;;;;;;;;;46.17;8.79;99978.00;5030369;28;19974;-61
2022/07/02 10:00:51;;;;;;;;;;;;;;;46.19;9.18;99978.56;5013371;28;19917;-60
2022/07/02 10:03:17;;;;;;;;;;;;;;;46.16;8.93;99975.53;5010402;28;20411;-59
2022/07/02 10:05:44;;;;;;;;;;;;;;;46.10;8.66;99973.88;5011594;28;19917;-61
2022/07/02 10:08:10;;;;;;;;;;;;;;;46.09;8.85;99973.06;5017826;28;20296;-61
2022/07/02 10:10:40;;;;;;;;;;;;;;;46.17;8.57;99974.41;5031165;28;20017;-60
2022/07/02 10:13:06;;;;;;;;;;;;;;;46.25;8.86;99962.84;5030877;28;19917;-59
2022/07/02 10:15:32;;;;;;;;;;;;;;;46.32;8.44;99968.91;5046569;28;20511;-61
2022/07/02 10:18:00;;;;;;;;;;;;;;;46.22;8.64;99955.19;5029796;28;19917;-61
2022/07/02 10:20:26;;;;;;;;;;;;;;;46.22;8.53;99958.72;5031127;28;19917;-60
2022/07/02 10:22:51;;;;;;;;;;;;;;;46.04;8.49;99961.25;5029319;28;19923;-60
2022/07/02 10:25:17;;;;;;;;;;;;;;;45.97;8.60;99953.28;5046319;28;20032;-60
2022/07/02 10:27:43;;;;;;;;;;;;;;;46.09;8.63;99947.47;5009096;28;19917;-61
2022/07/02 10:30:09;;;;;;;;;;;;;;;46.06;8.37;99948.88;5029070;28;19923;-61
2022/07/02 10:32:41;;;;;;;;;;;;;;;46.24;8.74;99953.78;5012739;28;19928;-61
2022/07/02 10:35:14;;;;;;;;;;;;;;;46.25;8.63;99940.84;5038850;28;19917;-59
2022/07/02 10:37:40;;;;;;;;;;;;;;;46.33;8.42;99941.09;5010001;28;20002;-60
2022/07/02 10:40:06;;;;;;;;;;;;;;;46.27;8.52;99944.16;5057231;28;19917;-61
2022/07/02 10:42:39;;;;;;;;;;;;;;;46.19;8.99;99937.31;5062282;28;19921;-61
2022/07/02 10:45:08;;;;;;;;;;;;;;;46.14;9.03;99939.22;5029124;28;19921;-60
2022/07/02 10:47:34;;;;;;;;;;;;;;;46.09;9.01;99925.47;5028978;28;19971;-60
2022/07/02 10:50:00;;;;;;;;;;;;;;;45.76;8.90;99918.66;5012970;28;19921;-62
2022/07/02 10:52:44;;;;;;;;;;;;;;;45.54;8.91;99928.03;5038342;28;19920;-61
2022/07/02 10:55:10;;;;;;;;;;;;;;;45.57;9.26;99921.19;5026004;28;20427;-61
2022/07/02 10:57:37;;;;;;;;;;;;;;;45.72;8.79;99918.41;5030571;28;19921;-62
2022/07/02 11:00:03;;;;;;;;;;;;;;;45.44;9.33;99918.97;5052417;28;20343;-61
2022/07/02 11:02:33;;;;;;;;;;;;;;;45.37;9.31;99912.91;5051359;28;20282;-61
2022/07/02 11:05:07;;;;;;;;;;;;;;;45.73;9.34;99910.97;5022487;28;19923;-62
2022/07/02 11:07:41;;;;;;;;;;;;;;;45.76;8.93;99910.41;5030581;28;19971;-62
2022/07/02 11:10:07;;;;;;;;;;;;;;;45.85;9.06;99911.53;5016788;28;20289;-63
2022/07/02 11:12:51;;;;;;;;;;;;;;;45.96;9.49;99919.47;5010887;28;19917;-62
2022/07/02 11:15:18;;;;;;;;;;;;;;;45.30;9.31;99907.69;4998042;28;19909;-64
2022/07/02 11:17:47;;;;;;;;;;;;;;;45.02;9.26;99913.69;5012314;28;19975;-62
2022/07/02 11:20:13;;;;;;;;;;;;;;;45.43;9.44;99918.19;5027313;28;20007;-62
2022/07/02 11:22:38;;;;;;;;;;;;;;;45.54;9.29;99908.78;5028906;28;19970;-63
2022/07/02 11:25:04;;;;;;;;;;;;;;;45.79;9.08;99913.47;5028818;28;20414;-62
2022/07/02 11:27:30;;;;;;;;;;;;;;;45.92;8.96;99904.63;5028426;28;19917;-62
2022/07/02 11:29:56;;;;;;;;;;;;;;;46.02;8.93;99901.03;5028010;28;20308;-63
2022/07/02 11:32:21;;;;;;;;;;;;;;;46.10;9.38;99905.13;5018392;28;19963;-61
2022/07/02 11:34:56;;;;;;;;;;;;;;;46.06;9.37;99909.56;5058244;28;20054;-60
2022/07/02 11:37:22;;;;;;;;;;;;;;;46.05;9.23;99891.41;5018279;28;20491;-61
2022/07/02 11:39:48;;;;;;;;;;;;;;;46.18;9.05;99893.56;5017270;28;20016;-61
2022/07/02 11:42:13;;;;;;;;;;;;;;;46.30;9.25;99892.16;5027083;28;19917;-61
2022/07/02 11:44:39;;;;;;;;;;;;;;;46.20;9.12;99881.19;5002334;28;19921;-63
2022/07/02 11:47:05;;;;;;;;;;;;;;;46.14;9.17;99882.28;5012419;28;19924;-63
2022/07/02 11:49:32;;;;;;;;;;;;;;;46.17;9.21;99890.00;5028425;28;19921;-63
2022/07/02 11:51:58;;;;;;;;;;;;;;;46.17;8.93;99875.41;5012455;28;19943;-62
2022/07/02 11:54:23;;;;;;;;;;;;;;;46.05;8.96;99866.66;5029180;28;19920;-60
2022/07/02 11:56:50;;;;;;;;;;;;;;;45.85;9.19;99867.56;5028610;28;19921;-59
2022/07/02 11:59:16;;;;;;;;;;;;;;;45.97;9.27;99868.03;5019106;28;19921;-56
2022/07/02 12:01:42;;;;;;;;;;;;;;;46.07;9.34;99873.50;5026818;28;20019;-59
2022/07/02 12:04:12;;;;;;;;;;;;;;;46.17;9.00;99868.00;5028970;28;19999;-61
2022/07/02 12:06:42;;;;;;;;;;;;;;;46.10;8.99;99866.63;5028840;28;19924;-58
2022/07/02 12:09:11;;;;;;;;;;;;;;;46.19;9.01;99863.03;5023002;28;20408;-65
2022/07/02 12:11:37;;;;;;;;;;;;;;;46.01;9.50;99854.59;5022614;28;19917;-67
2022/07/02 12:14:04;;;;;;;;;;;;;;;45.69;9.51;99849.44;5014283;28;20208;-67
2022/07/02 12:16:30;;;;;;;;;;;;;;;45.74;9.86;99855.75;5025916;28;20007;-67
2022/07/02 12:18:56;;;;;;;;;;;;;;;46.16;10.81;99863.59;5029540;28;19944;-66
2022/07/02 12:21:22;;;;;;;;;;;;;;;46.42;10.72;99863.47;5031411;28;20446;-66
2022/07/02 12:23:48;;;;;;;;;;;;;;;46.61;10.44;99858.97;5063454;28;20403;-67
2022/07/02 12:26:22;;;;;;;;;;;;;;;46.66;10.44;99853.44;5030877;28;19923;-68
2022/07/02 12:32:06;;;;;;;;;;;;;;;46.42;10.50;99856.06;5032944;28;20007;-66
2022/07/02 12:34:38;;;;;;;;;;;;;;;46.27;10.47;99847.88;5032062;28;19923;-65
2022/07/02 12:37:04;;;;;;;;;;;;;;;46.27;10.40;99845.94;5064898;28;20596;-66
2022/07/02 12:39:38;;;;;;;;;;;;;;;46.02;10.71;99843.28;5031604;28;19916;-68
2022/07/02 12:42:20;;;;;;;;;;;;;;;45.45;10.51;99838.22;5064520;28;19921;-67
2022/07/02 12:44:55;;;;;;;;;;;;;;;43.93;10.92;99840.63;5030447;28;19917;-68
2022/07/02 12:47:23;;;;;;;;;;;;;;;42.54;11.14;99832.66;5048023;28;19925;-67